createdAt,value
2019-04-10T00:00:06.516Z,90.80
2019-04-10T00:02:33.609Z,91.20
2019-04-10T00:05:01.244Z,88.50
2019-04-10T00:07:29.141Z,88.40
2019-04-10T00:09:57.264Z,90.20
2019-04-10T00:12:25.439Z,91.00
2019-04-10T00:14:52.578Z,91.10
2019-04-10T00:17:20.550Z,91.40
2019-04-10T00:19:47.763Z,91.20
2019-04-10T00:22:14.974Z,90.80
2019-04-10T00:24:42.128Z,87.70
2019-04-10T00:27:09.080Z,87.70
2019-04-10T00:29:36.289Z,87.70
2019-04-10T00:32:03.767Z,87.70
2019-04-10T00:34:31.846Z,89.20
2019-04-10T00:36:59.541Z,90.30
2019-04-10T00:39:26.674Z,90.70
2019-04-10T00:41:54.680Z,91.00
2019-04-10T00:44:21.901Z,91.70
2019-04-10T00:46:49.064Z,91.40
2019-04-10T00:49:16.066Z,91.00
2019-04-10T00:51:43.637Z,91.10
2019-04-10T00:54:11.881Z,91.20
2019-04-10T00:56:39.107Z,90.00
2019-04-10T00:59:06.129Z,87.50
2019-04-10T01:01:33.991Z,86.20
2019-04-10T01:04:02.656Z,85.90
2019-04-10T01:06:30.408Z,85.70
2019-04-10T01:08:57.602Z,84.40
2019-04-10T01:11:25.223Z,84.20
2019-04-10T01:13:53.614Z,84.10
2019-04-10T01:16:20.846Z,83.80
2019-04-10T01:18:47.904Z,84.00
2019-04-10T01:21:14.896Z,84.10
2019-04-10T01:23:41.903Z,83.70
2019-04-10T01:26:08.875Z,83.70
2019-04-10T01:28:36.711Z,84.80
2019-04-10T01:31:04.506Z,84.40
2019-04-10T01:33:32.523Z,84.90
2019-04-10T01:35:59.704Z,85.40
2019-04-10T01:38:27.240Z,86.70
2019-04-10T01:40:55.274Z,86.10
2019-04-10T01:43:22.588Z,85.30
2019-04-10T01:45:49.649Z,85.60
2019-04-10T01:48:17.472Z,86.60
2019-04-10T01:50:44.676Z,87.90
2019-04-10T01:53:11.696Z,86.60
2019-04-10T01:55:38.887Z,85.90
2019-04-10T01:58:08.533Z,84.30
2019-04-10T02:00:37.612Z,84.40
2019-04-10T02:03:05.579Z,84.80
2019-04-10T02:05:32.696Z,85.60
2019-04-10T02:08:07.646Z,86.50
2019-04-10T02:10:28.603Z,87.20
2019-04-10T02:12:55.591Z,85.70
2019-04-10T02:15:22.812Z,86.00
2019-04-10T02:17:49.863Z,84.30
2019-04-10T02:20:16.931Z,83.40
2019-04-10T02:22:43.805Z,82.70
2019-04-10T02:25:11.587Z,82.80
2019-04-10T02:27:38.608Z,82.40
2019-04-10T02:30:08.091Z,82.50
2019-04-10T02:32:36.971Z,82.50
2019-04-10T02:35:06.256Z,81.70
2019-04-10T02:37:33.404Z,82.20
2019-04-10T02:40:02.765Z,81.60
2019-04-10T02:42:30.173Z,81.10
2019-04-10T02:44:57.871Z,80.40
2019-04-10T02:47:26.544Z,80.10
2019-04-10T02:49:54.475Z,80.40
2019-04-10T02:52:24.263Z,80.10
2019-04-10T02:54:51.560Z,80.60
2019-04-10T02:57:19.468Z,80.40
2019-04-10T02:59:47.341Z,79.90
2019-04-10T03:02:16.075Z,79.90
2019-04-10T03:04:44.406Z,79.40
2019-04-10T03:07:11.774Z,79.00
2019-04-10T03:09:53.504Z,78.70
2019-04-10T03:12:10.292Z,78.50
2019-04-10T03:14:39.173Z,77.70
2019-04-10T03:17:06.529Z,78.70
2019-04-10T03:19:33.783Z,78.70
2019-04-10T03:22:01.778Z,78.40
2019-04-10T03:24:29.477Z,78.40
2019-04-10T03:26:56.602Z,77.60
2019-04-10T03:29:24.050Z,78.50
2019-04-10T03:31:52.948Z,78.80
2019-04-10T03:34:22.928Z,77.60
2019-04-10T03:36:51.673Z,77.60
2019-04-10T03:39:19.085Z,77.60
2019-04-10T03:41:46.116Z,77.60
2019-04-10T03:44:13.169Z,76.70
2019-04-10T03:46:40.299Z,76.90
2019-04-10T03:49:07.518Z,77.50
2019-04-10T03:51:34.538Z,75.70
2019-04-10T03:54:02.652Z,76.20
2019-04-10T03:56:29.796Z,76.20
2019-04-10T03:58:57.833Z,76.40
2019-04-10T04:01:25.118Z,76.10
2019-04-10T04:03:53.039Z,75.70
2019-04-10T04:06:20.076Z,76.30
2019-04-10T04:08:47.977Z,75.80
2019-04-10T04:11:15.883Z,75.90
2019-04-10T04:13:43.761Z,76.30
2019-04-10T04:16:10.949Z,76.40
2019-04-10T04:18:37.987Z,78.20
2019-04-10T04:21:05.593Z,77.50
2019-04-10T04:23:32.792Z,77.40
2019-04-10T04:26:00.907Z,75.80
2019-04-10T04:28:28.074Z,75.70
2019-04-10T04:30:55.207Z,75.40
2019-04-10T04:33:23.149Z,75.40
2019-04-10T04:35:51.061Z,75.30
2019-04-10T04:38:18.206Z,75.80
2019-04-10T04:40:46.296Z,75.70
2019-04-10T04:43:14.537Z,75.70
2019-04-10T04:45:42.254Z,75.40
2019-04-10T04:48:09.801Z,75.40
2019-04-10T04:50:38.143Z,74.80
2019-04-10T04:53:06.529Z,74.90
2019-04-10T04:55:33.681Z,75.30
2019-04-10T04:58:00.754Z,75.80
2019-04-10T05:00:27.874Z,75.70
2019-04-10T05:02:55.702Z,75.30
2019-04-10T05:05:23.058Z,74.80
2019-04-10T05:07:59.344Z,74.60
2019-04-10T05:10:18.980Z,74.10
2019-04-10T05:12:45.917Z,73.60
2019-04-10T05:15:13.014Z,73.00
2019-04-10T05:17:39.981Z,73.50
2019-04-10T05:20:07.240Z,72.90
2019-04-10T05:22:34.319Z,73.50
2019-04-10T05:25:01.492Z,73.70
2019-04-10T05:27:28.867Z,73.20
2019-04-10T05:29:55.906Z,72.30
2019-04-10T05:32:23.419Z,72.00
2019-04-10T05:35:00.836Z,72.20
2019-04-10T05:37:28.319Z,72.10
2019-04-10T05:39:55.517Z,72.10
2019-04-10T05:42:22.708Z,71.70
2019-04-10T05:44:50.149Z,71.30
2019-04-10T05:47:17.373Z,70.80
2019-04-10T05:49:45.017Z,70.30
2019-04-10T05:52:12.674Z,70.00
2019-04-10T05:54:39.908Z,70.00
2019-04-10T05:57:06.898Z,69.20
2019-04-10T05:59:34.284Z,68.60
2019-04-10T06:02:01.518Z,68.70
2019-04-10T06:04:29.462Z,67.90
2019-04-10T06:06:56.875Z,68.40
2019-04-10T06:09:24.712Z,68.00
2019-04-10T06:11:51.790Z,67.00
2019-04-10T06:14:19.001Z,67.90
2019-04-10T06:16:46.014Z,67.90
2019-04-10T06:19:13.628Z,67.90
2019-04-10T06:21:41.103Z,67.90
2019-04-10T06:24:08.159Z,67.40
2019-04-10T06:26:35.618Z,67.30
2019-04-10T06:29:02.680Z,66.40
2019-04-10T06:31:30.438Z,66.40
2019-04-10T06:33:58.410Z,66.10
2019-04-10T06:36:25.477Z,65.90
2019-04-10T06:38:53.034Z,65.60
2019-04-10T06:41:19.998Z,64.90
2019-04-10T06:43:47.447Z,64.70
2019-04-10T06:46:14.643Z,64.90
2019-04-10T06:48:44.465Z,64.40
2019-04-10T06:51:12.306Z,64.10
2019-04-10T06:53:39.502Z,63.60
2019-04-10T06:56:06.965Z,63.40
2019-04-10T06:58:34.114Z,63.40
2019-04-10T07:01:01.845Z,63.50
2019-04-10T07:03:44.776Z,63.10
2019-04-10T07:06:06.034Z,62.90
2019-04-10T07:08:27.465Z,63.20
2019-04-10T07:11:02.620Z,63.00
2019-04-10T07:13:23.976Z,62.50
2019-04-10T07:15:54.392Z,62.40
2019-04-10T07:18:20.658Z,63.10
2019-04-10T07:20:49.005Z,63.10
2019-04-10T07:23:23.335Z,62.60
2019-04-10T07:25:46.886Z,62.30
2019-04-10T07:28:14.157Z,62.10
2019-04-10T07:30:41.274Z,61.80
2019-04-10T07:33:09.644Z,62.30
2019-04-10T07:35:38.229Z,62.00
2019-04-10T07:38:05.634Z,62.10
2019-04-10T07:40:36.112Z,60.80
2019-04-10T07:43:02.135Z,62.40
2019-04-10T07:45:29.241Z,61.80
2019-04-10T07:47:56.296Z,61.40
2019-04-10T07:50:23.376Z,60.60
2019-04-10T07:52:50.402Z,60.90
2019-04-10T07:55:19.533Z,61.40
2019-04-10T07:57:48.773Z,61.50
2019-04-10T08:00:16.051Z,62.10
2019-04-10T08:02:43.272Z,61.20
2019-04-10T08:05:10.360Z,60.60
2019-04-10T08:07:38.930Z,60.40
2019-04-10T08:10:06.526Z,59.20
2019-04-10T08:12:43.269Z,59.30
2019-04-10T08:15:02.860Z,59.40
2019-04-10T08:17:30.400Z,59.50
2019-04-10T08:19:57.456Z,59.20
2019-04-10T08:22:24.624Z,59.00
2019-04-10T08:24:51.696Z,58.50
2019-04-10T08:27:19.348Z,58.00
2019-04-10T08:29:46.485Z,58.10
2019-04-10T08:32:13.881Z,58.60
2019-04-10T08:34:42.068Z,58.70
2019-04-10T08:37:10.299Z,58.30
2019-04-10T08:39:41.690Z,59.00
2019-04-10T08:42:06.518Z,59.30
2019-04-10T08:44:34.018Z,59.10
2019-04-10T08:47:02.400Z,59.30
2019-04-10T08:49:30.432Z,59.00
2019-04-10T08:51:57.850Z,59.30
2019-04-10T08:54:26.055Z,59.80
2019-04-10T08:56:53.005Z,59.80
2019-04-10T08:59:20.032Z,57.00
2019-04-10T09:01:47.308Z,56.40
2019-04-10T09:04:14.607Z,57.00
2019-04-10T09:06:41.854Z,56.80
2019-04-10T09:09:09.758Z,56.50
2019-04-10T09:11:37.567Z,56.50
2019-04-10T09:14:05.154Z,55.10
2019-04-10T09:16:32.231Z,54.90
2019-04-10T09:18:59.172Z,54.60
2019-04-10T09:21:26.226Z,53.70
2019-04-10T09:23:56.100Z,55.80
2019-04-10T09:26:22.461Z,56.50
2019-04-10T09:28:50.675Z,57.00
2019-04-10T09:31:17.909Z,55.20
2019-04-10T09:33:45.466Z,55.40
2019-04-10T09:36:13.193Z,55.70
2019-04-10T09:38:41.035Z,55.60
2019-04-10T09:41:08.215Z,53.40
2019-04-10T09:43:35.984Z,50.60
2019-04-10T09:46:04.178Z,49.70
2019-04-10T09:48:31.664Z,48.30
2019-04-10T09:50:58.676Z,46.90
2019-04-10T09:53:26.745Z,46.70
2019-04-10T09:55:54.538Z,45.90
2019-04-10T09:58:21.877Z,45.60
2019-04-10T10:00:49.189Z,46.20
2019-04-10T10:03:17.328Z,46.30
2019-04-10T10:05:44.885Z,46.80
2019-04-10T10:08:14.270Z,47.30
2019-04-10T10:10:41.597Z,47.00
2019-04-10T10:13:09.611Z,44.60
2019-04-10T10:15:37.666Z,44.30
2019-04-10T10:18:05.481Z,43.80
2019-04-10T10:20:32.564Z,44.60
2019-04-10T10:22:59.707Z,43.80
2019-04-10T10:25:27.006Z,44.50
2019-04-10T10:27:54.467Z,44.00
2019-04-10T10:30:21.715Z,44.90
2019-04-10T10:32:48.988Z,44.20
2019-04-10T10:35:16.792Z,44.20
2019-04-10T10:37:43.908Z,43.00
2019-04-10T10:40:12.529Z,42.30
2019-04-10T10:42:41.217Z,42.30
2019-04-10T10:45:08.741Z,42.50
2019-04-10T10:47:35.946Z,42.90
2019-04-10T10:50:03.279Z,41.90
2019-04-10T10:52:31.279Z,42.00
2019-04-10T10:54:59.077Z,41.80
2019-04-10T10:57:26.970Z,42.20
2019-04-10T10:59:53.990Z,41.40
2019-04-10T11:02:21.264Z,42.40
2019-04-10T11:04:48.497Z,41.70
2019-04-10T11:07:16.175Z,41.90
2019-04-10T11:09:44.439Z,41.70
2019-04-10T11:12:12.184Z,40.10
2019-04-10T11:14:39.608Z,40.80
2019-04-10T11:17:06.681Z,40.90
2019-04-10T11:19:33.722Z,41.40
2019-04-10T11:22:01.035Z,41.10
2019-04-10T11:24:28.115Z,40.40
2019-04-10T11:26:55.303Z,39.70
2019-04-10T11:29:22.544Z,39.50
2019-04-10T11:31:49.705Z,40.40
2019-04-10T11:34:18.043Z,39.80
2019-04-10T11:36:45.193Z,39.60
2019-04-10T11:39:22.074Z,40.20
2019-04-10T11:41:41.358Z,39.90
2019-04-10T11:44:09.912Z,37.80
2019-04-10T11:46:38.677Z,38.30
2019-04-10T11:49:07.498Z,38.40
2019-04-10T11:51:36.727Z,38.50
2019-04-10T11:54:07.719Z,38.00
2019-04-10T11:56:34.305Z,38.40
2019-04-10T11:59:04.418Z,38.50
2019-04-10T12:01:31.153Z,38.00
2019-04-10T12:03:58.905Z,37.70
2019-04-10T12:06:29.717Z,36.80
2019-04-10T12:09:19.488Z,36.60
2019-04-10T12:11:24.897Z,37.00
2019-04-10T12:13:51.989Z,37.30
2019-04-10T12:16:18.989Z,36.80
2019-04-10T12:18:46.806Z,35.60
2019-04-10T12:21:13.905Z,36.20
2019-04-10T12:23:41.017Z,34.80
2019-04-10T12:26:08.031Z,34.80
2019-04-10T12:28:36.084Z,34.80
2019-04-10T12:31:03.822Z,35.50
2019-04-10T12:33:31.746Z,34.80
2019-04-10T12:35:58.781Z,34.80
2019-04-10T12:38:25.841Z,34.90
2019-04-10T12:40:53.001Z,34.80
2019-04-10T12:43:20.888Z,34.50
2019-04-10T12:45:48.609Z,34.70
2019-04-10T12:48:16.706Z,34.70
2019-04-10T12:50:43.901Z,33.80
2019-04-10T12:53:11.563Z,34.70
2019-04-10T12:55:38.917Z,34.30
2019-04-10T12:58:12.570Z,33.70
2019-04-10T13:00:35.970Z,34.10
2019-04-10T13:03:03.298Z,34.20
2019-04-10T13:05:31.309Z,34.00
2019-04-10T13:08:11.160Z,34.80
2019-04-10T13:10:27.463Z,33.70
2019-04-10T13:12:55.582Z,34.20
2019-04-10T13:15:23.407Z,34.00
2019-04-10T13:17:51.081Z,32.20
2019-04-10T13:20:18.243Z,32.70
2019-04-10T13:22:46.403Z,32.30
2019-04-10T13:25:14.446Z,31.90
2019-04-10T13:27:41.426Z,32.60
2019-04-10T13:30:12.901Z,32.20
2019-04-10T13:32:40.305Z,32.90
2019-04-10T13:35:08.103Z,33.80
2019-04-10T13:37:35.852Z,33.00
2019-04-10T13:40:03.754Z,32.20
2019-04-10T13:42:31.624Z,32.70
2019-04-10T13:44:59.235Z,32.30
2019-04-10T13:47:26.374Z,32.50
2019-04-10T13:49:54.565Z,32.80
2019-04-10T13:52:22.139Z,32.70
2019-04-10T13:54:49.102Z,32.70
2019-04-10T13:57:16.144Z,32.20
2019-04-10T13:59:43.323Z,32.30
2019-04-10T14:02:13.166Z,31.50
2019-04-10T14:04:40.906Z,32.20
2019-04-10T14:07:09.379Z,31.30
2019-04-10T14:09:43.958Z,31.20
2019-04-10T14:12:05.981Z,30.70
2019-04-10T14:14:33.565Z,30.70
2019-04-10T14:17:03.804Z,31.60
2019-04-10T14:19:31.794Z,31.70
2019-04-10T14:21:59.710Z,31.70
2019-04-10T14:24:38.302Z,30.50
2019-04-10T14:27:03.839Z,29.80
2019-04-10T14:29:34.315Z,30.90
2019-04-10T14:32:05.023Z,30.10
2019-04-10T14:34:34.965Z,30.10
2019-04-10T14:37:02.986Z,31.00
2019-04-10T14:39:31.336Z,30.40
2019-04-10T14:41:58.465Z,30.50
2019-04-10T14:44:25.531Z,30.30
2019-04-10T14:46:52.544Z,29.90
2019-04-10T14:49:19.441Z,30.00
2019-04-10T14:51:46.426Z,30.20
2019-04-10T14:54:13.691Z,30.00
2019-04-10T14:56:40.756Z,29.50
2019-04-10T14:59:07.885Z,29.30
2019-04-10T15:01:35.913Z,29.30
2019-04-10T15:04:03.265Z,28.70
2019-04-10T15:06:31.187Z,28.60
2019-04-10T15:08:58.198Z,28.90
2019-04-10T15:11:25.254Z,28.70
2019-04-10T15:13:52.668Z,29.10
2019-04-10T15:16:19.721Z,29.00
2019-04-10T15:18:47.774Z,28.00
2019-04-10T15:21:14.897Z,28.00
2019-04-10T15:23:42.576Z,28.10
2019-04-10T15:26:11.479Z,27.20
2019-04-10T15:28:39.455Z,26.60
2019-04-10T15:31:06.859Z,27.30
2019-04-10T15:33:33.875Z,27.50
2019-04-10T15:36:01.944Z,27.60
2019-04-10T15:38:31.860Z,26.70
2019-04-10T15:40:58.958Z,26.40
2019-04-10T15:43:29.360Z,26.30
2019-04-10T15:45:56.825Z,26.20
2019-04-10T15:48:25.112Z,26.60
2019-04-10T15:50:52.460Z,26.20
2019-04-10T15:53:20.221Z,26.70
2019-04-10T15:55:47.569Z,27.00
2019-04-10T15:58:15.038Z,26.90
2019-04-10T16:00:43.552Z,27.10
2019-04-10T16:03:11.310Z,27.10
2019-04-10T16:05:39.736Z,27.20
2019-04-10T16:08:07.981Z,27.30
2019-04-10T16:10:37.255Z,27.50
2019-04-10T16:13:06.297Z,27.20
2019-04-10T16:15:35.290Z,27.50
2019-04-10T16:18:13.704Z,27.50
2019-04-10T16:20:41.396Z,27.60
2019-04-10T16:23:10.571Z,27.30
2019-04-10T16:25:40.330Z,27.30
2019-04-10T16:28:08.295Z,27.70
2019-04-10T16:30:35.302Z,27.20
2019-04-10T16:33:03.043Z,26.90
2019-04-10T16:35:32.476Z,26.40
2019-04-10T16:38:00.116Z,26.50
2019-04-10T16:40:27.685Z,26.80
2019-04-10T16:42:55.192Z,27.10
2019-04-10T16:45:22.395Z,27.20
2019-04-10T16:47:50.365Z,27.80
2019-04-10T16:50:17.546Z,27.80
2019-04-10T16:52:45.229Z,27.90
2019-04-10T16:55:15.433Z,27.80
2019-04-10T16:57:43.101Z,27.80
2019-04-10T17:00:13.605Z,27.20
2019-04-10T17:02:40.160Z,27.40
2019-04-10T17:05:08.196Z,27.60
2019-04-10T17:07:35.988Z,28.00
2019-04-10T17:10:16.007Z,27.70
2019-04-10T17:12:42.228Z,27.50
2019-04-10T17:15:19.761Z,27.20
2019-04-10T17:17:52.666Z,27.30
2019-04-10T17:20:28.758Z,27.50
2019-04-10T17:23:00.410Z,27.30
2019-04-10T17:25:33.664Z,27.60
2019-04-10T17:28:12.259Z,27.40
2019-04-10T17:30:50.074Z,27.80
2019-04-10T17:33:26.802Z,27.60
2019-04-10T17:36:11.911Z,27.00
2019-04-10T17:38:44.945Z,26.60
2019-04-10T17:41:19.687Z,27.60
2019-04-10T17:43:47.510Z,27.80
2019-04-10T17:46:19.562Z,27.80
2019-04-10T17:48:55.005Z,27.80
2019-04-10T17:51:34.269Z,27.90
2019-04-10T17:54:06.205Z,28.10
2019-04-10T17:56:42.226Z,28.50
2019-04-10T17:59:12.410Z,28.40
2019-04-10T18:01:47.295Z,28.50
2019-04-10T18:04:22.206Z,28.50
2019-04-10T18:07:07.891Z,28.70
2019-04-10T18:09:32.738Z,28.90
2019-04-10T18:12:04.771Z,29.00
2019-04-10T18:14:38.350Z,29.20
2019-04-10T18:17:09.023Z,29.40
2019-04-10T18:19:42.228Z,29.50
2019-04-10T18:22:12.213Z,29.90
2019-04-10T18:24:53.661Z,30.00
2019-04-10T18:27:24.617Z,29.90
2019-04-10T18:29:59.408Z,30.00
2019-04-10T18:32:34.598Z,30.10
2019-04-10T18:35:08.761Z,30.40
2019-04-10T18:37:53.542Z,30.80
2019-04-10T18:40:58.043Z,31.20
2019-04-10T18:43:20.291Z,31.10
2019-04-10T18:45:58.345Z,31.30
2019-04-10T18:48:16.673Z,31.30
2019-04-10T18:50:45.102Z,31.30
2019-04-10T18:53:13.064Z,31.30
2019-04-10T18:55:40.657Z,31.50
2019-04-10T18:58:11.630Z,31.20
2019-04-10T19:00:52.886Z,31.30
2019-04-10T19:03:25.490Z,31.20
2019-04-10T19:05:58.340Z,31.30
2019-04-10T19:08:26.038Z,31.70
2019-04-10T19:11:09.450Z,31.80
2019-04-10T19:13:22.511Z,32.10
2019-04-10T19:15:49.776Z,32.20
2019-04-10T19:18:16.745Z,32.50
2019-04-10T19:20:45.240Z,32.50
2019-04-10T19:23:12.995Z,32.40
2019-04-10T19:25:40.903Z,32.90
2019-04-10T19:28:08.992Z,33.20
2019-04-10T19:30:41.491Z,33.40
2019-04-10T19:33:08.630Z,33.30
2019-04-10T19:35:35.882Z,33.60
2019-04-10T19:38:03.173Z,33.20
2019-04-10T19:40:30.393Z,33.70
2019-04-10T19:42:57.777Z,33.50
2019-04-10T19:45:25.870Z,32.90
2019-04-10T19:47:52.911Z,33.10
2019-04-10T19:50:19.889Z,33.10
2019-04-10T19:52:46.836Z,33.70
2019-04-10T19:55:14.135Z,33.90
2019-04-10T19:57:42.177Z,33.60
2019-04-10T20:00:10.667Z,33.70
2019-04-10T20:02:37.843Z,33.70
2019-04-10T20:05:05.235Z,34.10
2019-04-10T20:07:33.219Z,34.10
2019-04-10T20:10:02.077Z,34.20
2019-04-10T20:12:30.766Z,34.30
2019-04-10T20:14:58.005Z,33.90
2019-04-10T20:17:26.018Z,33.40
2019-04-10T20:19:56.432Z,33.90
2019-04-10T20:22:23.034Z,33.70
2019-04-10T20:24:51.792Z,33.40
2019-04-10T20:27:20.220Z,33.20
2019-04-10T20:29:47.663Z,33.60
2019-04-10T20:32:15.066Z,33.70
2019-04-10T20:34:43.295Z,34.00
2019-04-10T20:37:11.827Z,34.20
2019-04-10T20:39:39.757Z,34.50
2019-04-10T20:42:07.767Z,34.80
2019-04-10T20:44:34.951Z,34.90
2019-04-10T20:47:02.676Z,34.50
2019-04-10T20:49:34.210Z,35.10
2019-04-10T20:52:04.081Z,34.80
2019-04-10T20:54:32.928Z,34.50
2019-04-10T20:57:01.221Z,35.10
2019-04-10T20:59:28.688Z,36.30
2019-04-10T21:01:56.066Z,36.50
2019-04-10T21:04:23.503Z,35.70
2019-04-10T21:06:50.616Z,35.10
2019-04-10T21:09:19.062Z,34.80
2019-04-10T21:11:57.992Z,34.90
2019-04-10T21:14:17.400Z,35.10
2019-04-10T21:16:44.867Z,35.30
2019-04-10T21:19:16.433Z,34.60
2019-04-10T21:21:44.760Z,35.00
2019-04-10T21:24:11.812Z,35.00
2019-04-10T21:26:40.657Z,35.00
2019-04-10T21:29:11.052Z,36.10
2019-04-10T21:31:43.323Z,36.30
2019-04-10T21:34:19.619Z,36.90
2019-04-10T21:36:47.052Z,37.20
2019-04-10T21:39:13.966Z,38.10
2019-04-10T21:41:41.183Z,37.50
2019-04-10T21:44:09.649Z,37.50
2019-04-10T21:46:37.031Z,37.40
2019-04-10T21:49:04.012Z,38.00
2019-04-10T21:51:31.225Z,38.70
2019-04-10T21:53:58.105Z,38.00
2019-04-10T21:56:25.078Z,38.50
2019-04-10T21:58:54.815Z,38.40
2019-04-10T22:01:22.756Z,38.90
2019-04-10T22:03:49.997Z,38.30
2019-04-10T22:06:36.714Z,38.90
2019-04-10T22:09:12.680Z,38.50
2019-04-10T22:11:41.700Z,39.70
2019-04-10T22:14:08.843Z,39.70
2019-04-10T22:16:35.968Z,39.90
2019-04-10T22:19:03.776Z,39.80
2019-04-10T22:21:31.270Z,39.70
2019-04-10T22:23:58.852Z,39.60
2019-04-10T22:26:26.023Z,39.60
2019-04-10T22:28:53.041Z,39.60
2019-04-10T22:31:20.310Z,40.00
2019-04-10T22:33:47.432Z,39.70
2019-04-10T22:36:15.011Z,40.50
2019-04-10T22:38:42.068Z,40.50
2019-04-10T22:41:20.824Z,40.90
2019-04-10T22:43:38.699Z,41.00
2019-04-10T22:46:05.790Z,41.40
2019-04-10T22:48:32.946Z,41.30
2019-04-10T22:51:01.136Z,42.30
2019-04-10T22:53:28.924Z,41.60
2019-04-10T22:55:56.345Z,41.70
2019-04-10T22:58:24.561Z,42.10
2019-04-10T23:00:51.816Z,41.70
2019-04-10T23:03:18.801Z,41.70
2019-04-10T23:05:46.860Z,42.20
2019-04-10T23:08:13.810Z,42.50
2019-04-10T23:10:41.327Z,42.40
2019-04-10T23:13:08.938Z,42.50
2019-04-10T23:15:37.737Z,42.60
2019-04-10T23:18:05.506Z,42.90
2019-04-10T23:20:32.549Z,43.20
2019-04-10T23:22:59.488Z,42.70
2019-04-10T23:25:26.651Z,43.50
2019-04-10T23:27:56.236Z,43.40
2019-04-10T23:30:22.647Z,44.00
2019-04-10T23:32:49.554Z,43.30
2019-04-10T23:35:17.102Z,42.90
2019-04-10T23:37:44.623Z,43.50
2019-04-10T23:40:12.514Z,43.50
2019-04-10T23:42:39.936Z,43.50
2019-04-10T23:45:07.215Z,43.20
2019-04-10T23:47:34.252Z,43.20
2019-04-10T23:50:01.897Z,43.10
2019-04-10T23:52:28.986Z,42.90
2019-04-10T23:54:56.041Z,43.20
2019-04-10T23:57:23.192Z,42.90
2019-04-10T23:59:50.990Z,43.10
